createdAt,value
2023-03-30T00:03:42.718Z,4.68
2023-03-30T00:08:40.797Z,4.13
2023-03-30T00:13:39.472Z,4.28
2023-03-30T00:18:36.823Z,3.88
2023-03-30T00:23:33.643Z,3.90
2023-03-30T00:28:34.944Z,4.28
2023-03-30T00:33:44.875Z,4.07
2023-03-30T00:38:44.845Z,4.57
2023-03-30T00:44:00.158Z,4.30
2023-03-30T00:49:03.450Z,4.35
2023-03-30T00:54:06.738Z,4.47
2023-03-30T00:59:05.079Z,4.18
2023-03-30T01:04:06.131Z,4.38
2023-03-30T01:09:03.444Z,4.72
2023-03-30T01:14:03.660Z,4.47
2023-03-30T01:19:23.814Z,4.72
2023-03-30T01:24:48.390Z,4.55
2023-03-30T01:30:07.862Z,6.07
2023-03-30T01:35:27.764Z,6.32
2023-03-30T01:40:29.516Z,4.18
2023-03-30T01:45:36.374Z,5.20
2023-03-30T01:50:39.896Z,5.80
2023-03-30T01:55:43.067Z,4.35
2023-03-30T02:00:48.360Z,5.10
2023-03-30T02:05:49.597Z,6.68
2023-03-30T02:10:49.503Z,4.30
2023-03-30T02:15:50.287Z,4.53
2023-03-30T02:20:48.857Z,4.60
2023-03-30T02:25:46.006Z,4.60
2023-03-30T02:30:45.384Z,4.15
2023-03-30T02:35:59.077Z,4.68
2023-03-30T02:41:08.916Z,4.22
2023-03-30T02:46:38.420Z,4.75
2023-03-30T02:51:42.719Z,5.18
2023-03-30T02:56:56.801Z,4.55
2023-03-30T03:01:58.639Z,5.32
2023-03-30T03:06:56.584Z,4.50
2023-03-30T03:11:53.637Z,5.47
2023-03-30T03:16:51.504Z,4.90
2023-03-30T03:21:51.149Z,5.28
2023-03-30T03:26:48.833Z,5.45
2023-03-30T03:31:45.881Z,6.57
2023-03-30T03:36:43.325Z,6.18
2023-03-30T03:41:41.194Z,4.82
2023-03-30T03:46:38.828Z,5.30
2023-03-30T03:51:37.924Z,5.47
2023-03-30T03:56:35.592Z,5.32
2023-03-30T04:01:33.253Z,8.40
2023-03-30T04:06:30.165Z,6.78
2023-03-30T04:11:27.098Z,9.10
2023-03-30T04:16:39.032Z,9.82
2023-03-30T04:21:50.330Z,9.18
2023-03-30T04:27:09.064Z,7.43
2023-03-30T04:32:54.066Z,7.45
2023-03-30T04:38:24.734Z,10.17
2023-03-30T04:43:36.814Z,11.60
2023-03-30T04:48:37.064Z,9.77
2023-03-30T04:53:43.130Z,9.00
2023-03-30T04:59:02.461Z,7.68
2023-03-30T05:04:22.396Z,9.82
2023-03-30T05:09:38.115Z,7.70
2023-03-30T05:14:53.610Z,12.05
2023-03-30T05:20:17.643Z,9.40
2023-03-30T05:25:49.913Z,9.00
2023-03-30T05:31:11.347Z,6.97
2023-03-30T05:36:24.422Z,14.95
2023-03-30T05:41:37.055Z,7.20
2023-03-30T05:46:51.456Z,7.00
2023-03-30T05:52:10.232Z,24.58
2023-03-30T05:57:27.705Z,8.98
2023-03-30T06:02:58.647Z,6.30
2023-03-30T06:08:00.268Z,7.07
2023-03-30T06:12:57.921Z,5.88
2023-03-30T06:18:03.391Z,6.10
2023-03-30T06:23:03.835Z,5.95
2023-03-30T06:28:01.688Z,7.72
2023-03-30T06:33:04.985Z,7.70
2023-03-30T06:38:14.906Z,7.38
2023-03-30T06:43:16.115Z,6.88
2023-03-30T06:48:24.826Z,5.60
2023-03-30T06:53:45.200Z,5.38
2023-03-30T06:58:42.290Z,5.03
2023-03-30T07:03:47.462Z,4.57
2023-03-30T07:14:00.499Z,4.85
2023-03-30T07:19:00.647Z,5.35
2023-03-30T07:24:00.538Z,5.43
2023-03-30T07:29:04.817Z,5.53
2023-03-30T07:34:10.262Z,5.45
2023-03-30T07:39:12.683Z,5.88
2023-03-30T07:44:12.719Z,5.82
2023-03-30T07:49:10.396Z,6.30
2023-03-30T07:54:09.748Z,5.95
2023-03-30T07:59:31.439Z,4.68
2023-03-30T08:04:43.226Z,4.40
2023-03-30T08:09:40.944Z,4.45
2023-03-30T08:14:38.787Z,5.03
2023-03-30T08:19:35.614Z,3.53
2023-03-30T08:24:32.911Z,5.10
2023-03-30T08:29:30.946Z,4.07
2023-03-30T08:34:29.049Z,2.92
2023-03-30T08:39:26.283Z,3.35
2023-03-30T08:44:33.444Z,2.80
2023-03-30T08:49:37.124Z,2.80
2023-03-30T08:54:34.288Z,2.35
2023-03-30T08:59:44.129Z,2.95
2023-03-30T09:04:57.272Z,2.10
2023-03-30T09:14:58.067Z,2.45
2023-03-30T09:20:01.204Z,2.80
2023-03-30T09:25:02.343Z,6.93
2023-03-30T09:30:07.877Z,2.83
2023-03-30T09:35:13.838Z,2.50
2023-03-30T09:40:36.621Z,2.38
2023-03-30T09:45:34.229Z,2.08
2023-03-30T09:50:37.566Z,2.40
2023-03-30T09:55:36.586Z,2.65
2023-03-30T10:00:34.165Z,2.17
2023-03-30T10:05:33.650Z,2.40
2023-03-30T10:10:34.951Z,2.25
2023-03-30T10:15:32.485Z,2.63
2023-03-30T10:20:35.540Z,2.83
2023-03-30T10:25:33.639Z,2.20
2023-03-30T10:30:31.956Z,2.80
2023-03-30T10:35:36.441Z,2.70
2023-03-30T10:40:36.579Z,2.35
2023-03-30T10:45:40.443Z,2.38
2023-03-30T10:50:48.526Z,2.47
2023-03-30T10:55:53.006Z,3.47
2023-03-30T11:01:03.784Z,2.83
2023-03-30T11:06:09.613Z,3.25
2023-03-30T11:11:12.765Z,3.40
2023-03-30T11:16:16.140Z,2.42
2023-03-30T11:21:19.774Z,2.75
2023-03-30T11:26:20.187Z,2.97
2023-03-30T11:31:33.199Z,2.60
2023-03-30T11:36:35.666Z,2.97
2023-03-30T11:41:38.705Z,2.53
2023-03-30T11:46:42.866Z,2.78
2023-03-30T11:51:53.257Z,2.60
2023-03-30T11:56:55.889Z,3.28
2023-03-30T12:02:06.979Z,3.00
2023-03-30T12:07:11.732Z,2.85
2023-03-30T12:12:15.030Z,2.50
2023-03-30T12:17:27.373Z,5.07
2023-03-30T12:22:35.212Z,3.75
2023-03-30T12:27:36.467Z,2.80
2023-03-30T12:32:35.264Z,2.42
2023-03-30T12:37:41.127Z,2.70
2023-03-30T12:42:46.441Z,2.50
2023-03-30T12:48:01.578Z,2.55
2023-03-30T12:53:23.599Z,2.30
2023-03-30T12:58:43.562Z,2.70
2023-03-30T13:03:49.667Z,2.95
2023-03-30T13:08:47.771Z,2.22
2023-03-30T13:13:56.548Z,2.40
2023-03-30T13:18:55.406Z,2.53
2023-03-30T13:24:07.562Z,2.30
2023-03-30T13:29:08.025Z,2.08
2023-03-30T13:34:23.245Z,2.47
2023-03-30T13:39:29.026Z,2.33
2023-03-30T13:44:46.092Z,2.75
2023-03-30T13:49:58.215Z,3.08
2023-03-30T13:54:56.153Z,2.33
2023-03-30T13:59:57.931Z,2.53
2023-03-30T14:04:54.866Z,2.70
2023-03-30T14:10:08.848Z,2.90
2023-03-30T14:15:19.371Z,2.20
2023-03-30T14:20:28.335Z,4.13
2023-03-30T14:25:28.672Z,3.10
2023-03-30T14:30:28.903Z,2.83
2023-03-30T14:35:26.178Z,3.05
2023-03-30T14:40:24.613Z,2.20
2023-03-30T14:45:22.370Z,2.90
2023-03-30T14:50:19.508Z,2.65
2023-03-30T14:55:20.690Z,2.00
2023-03-30T15:00:20.408Z,2.40
2023-03-30T15:05:19.841Z,2.95
2023-03-30T15:10:25.249Z,3.03
2023-03-30T15:20:29.336Z,3.13
2023-03-30T15:25:31.587Z,2.63
2023-03-30T15:30:36.123Z,1.95
2023-03-30T15:35:39.926Z,3.43
2023-03-30T15:40:39.911Z,2.80
2023-03-30T15:45:37.007Z,2.67
2023-03-30T15:50:36.293Z,3.00
2023-03-30T15:55:33.782Z,3.38
2023-03-30T16:00:35.295Z,4.25
2023-03-30T16:05:33.672Z,3.50
2023-03-30T16:10:34.512Z,3.20
2023-03-30T16:15:33.165Z,3.83
2023-03-30T16:20:31.926Z,4.18
2023-03-30T16:30:33.525Z,9.85
2023-03-30T16:35:31.112Z,6.38
2023-03-30T16:40:32.650Z,6.10
2023-03-30T16:45:30.827Z,5.95
2023-03-30T16:50:37.335Z,5.75
2023-03-30T16:55:34.774Z,10.70
2023-03-30T17:00:36.363Z,5.03
2023-03-30T17:05:33.813Z,6.10
2023-03-30T17:10:33.869Z,4.30
2023-03-30T17:15:31.232Z,5.20
2023-03-30T17:20:35.615Z,5.78
2023-03-30T17:25:35.442Z,8.90
2023-03-30T17:30:35.194Z,9.32
2023-03-30T17:35:33.924Z,9.88
2023-03-30T17:40:32.383Z,15.90
2023-03-30T17:45:30.015Z,21.77
2023-03-30T17:50:36.063Z,26.27
2023-03-30T17:55:34.047Z,25.75
2023-03-30T18:00:32.963Z,28.17
2023-03-30T18:05:31.810Z,23.30
2023-03-30T18:10:35.420Z,23.65
2023-03-30T18:15:36.222Z,21.58
2023-03-30T18:20:35.654Z,22.67
2023-03-30T18:25:35.825Z,23.58
2023-03-30T18:30:36.290Z,19.63
2023-03-30T18:35:35.964Z,20.25
2023-03-30T18:40:36.121Z,10.98
2023-03-30T18:45:35.257Z,8.85
2023-03-30T18:50:35.231Z,6.57
2023-03-30T18:55:34.090Z,7.43
2023-03-30T19:00:34.445Z,8.32
2023-03-30T19:05:32.903Z,8.40
2023-03-30T19:10:32.658Z,6.25
2023-03-30T19:15:32.623Z,4.75
2023-03-30T19:20:31.672Z,4.50
2023-03-30T19:25:28.544Z,4.35
2023-03-30T19:30:26.397Z,4.57
2023-03-30T19:35:25.255Z,3.75
2023-03-30T19:40:22.532Z,4.28
2023-03-30T19:45:22.261Z,4.13
2023-03-30T19:50:22.518Z,3.95
2023-03-30T19:55:20.729Z,4.80
2023-03-30T20:00:19.106Z,4.68
2023-03-30T20:05:16.888Z,4.75
2023-03-30T20:10:16.348Z,3.60
2023-03-30T20:15:14.369Z,4.70
2023-03-30T20:20:13.449Z,3.38
2023-03-30T20:25:12.951Z,4.32
2023-03-30T20:30:12.041Z,4.70
2023-03-30T20:35:11.142Z,4.32
2023-03-30T20:40:09.421Z,4.28
2023-03-30T20:45:07.831Z,3.53
2023-03-30T20:50:05.880Z,3.13
2023-03-30T20:55:03.873Z,3.42
2023-03-30T21:00:01.019Z,2.85
2023-03-30T21:04:59.500Z,2.85
2023-03-30T21:09:56.252Z,3.00
2023-03-30T21:14:53.697Z,2.97
2023-03-30T21:19:50.450Z,2.80
2023-03-30T21:24:47.266Z,2.85
2023-03-30T21:29:44.027Z,2.17
2023-03-30T21:34:41.401Z,3.03
2023-03-30T21:39:38.400Z,3.60
2023-03-30T21:44:36.104Z,3.92
2023-03-30T21:49:33.250Z,6.72
2023-03-30T21:54:30.680Z,6.85
2023-03-30T21:59:27.575Z,5.45
2023-03-30T22:04:24.905Z,5.30
2023-03-30T22:09:21.753Z,6.90
2023-03-30T22:14:19.494Z,6.00
2023-03-30T22:19:17.923Z,5.65
2023-03-30T22:24:16.874Z,6.05
2023-03-30T22:29:13.781Z,6.40
2023-03-30T22:34:11.525Z,8.93
2023-03-30T22:39:08.529Z,11.82
2023-03-30T22:44:05.798Z,10.10
2023-03-30T22:49:03.104Z,10.25
2023-03-30T22:54:00.860Z,11.65
2023-03-30T22:58:59.450Z,13.88
2023-03-30T23:03:58.820Z,11.93
2023-03-30T23:08:55.798Z,12.32
2023-03-30T23:13:53.371Z,12.90
2023-03-30T23:18:50.813Z,12.43
2023-03-30T23:23:47.586Z,10.93
2023-03-30T23:28:44.675Z,10.90
2023-03-30T23:33:42.477Z,10.77
2023-03-30T23:38:39.388Z,11.75
2023-03-30T23:43:36.270Z,9.40
2023-03-30T23:48:33.411Z,10.80
2023-03-30T23:53:31.016Z,10.98
2023-03-30T23:58:27.913Z,8.77
